createdAt,value
2022-12-29T00:02:56.473Z,10.20
2022-12-29T00:08:00.368Z,10.18
2022-12-29T00:13:18.338Z,10.15
2022-12-29T00:18:23.416Z,10.11
2022-12-29T00:23:44.744Z,10.01
2022-12-29T00:29:06.328Z,9.98
2022-12-29T00:34:32.699Z,9.86
2022-12-29T00:39:54.009Z,9.72
2022-12-29T00:44:57.796Z,9.69
2022-12-29T00:50:02.966Z,9.62
2022-12-29T00:55:07.337Z,9.60
2022-12-29T01:00:12.688Z,9.56
2022-12-29T01:05:17.781Z,9.57
2022-12-29T01:10:22.629Z,9.61
2022-12-29T01:15:26.332Z,9.67
2022-12-29T01:20:31.405Z,9.72
2022-12-29T01:25:35.126Z,9.82
2022-12-29T01:30:39.306Z,9.87
2022-12-29T01:35:44.392Z,9.96
2022-12-29T01:40:49.201Z,10.02
2022-12-29T01:45:55.901Z,10.20
2022-12-29T01:51:01.076Z,10.25
2022-12-29T01:56:09.552Z,10.34
2022-12-29T02:01:13.760Z,10.39
2022-12-29T02:06:23.191Z,10.55
2022-12-29T02:11:28.859Z,10.53
2022-12-29T02:16:45.675Z,10.52
2022-12-29T02:22:15.084Z,10.55
2022-12-29T02:27:39.789Z,10.45
2022-12-29T02:32:54.721Z,10.51
2022-12-29T02:38:09.579Z,10.56
2022-12-29T02:43:24.751Z,10.54
2022-12-29T02:48:34.853Z,10.54
2022-12-29T02:53:56.739Z,10.53
2022-12-29T02:59:00.644Z,10.37
2022-12-29T03:04:20.978Z,10.23
2022-12-29T03:09:38.581Z,10.19
2022-12-29T03:15:11.764Z,10.15
2022-12-29T03:20:23.674Z,10.06
2022-12-29T03:25:32.040Z,10.03
2022-12-29T03:30:37.948Z,9.92
2022-12-29T03:35:46.240Z,9.88
2022-12-29T03:40:51.668Z,9.82
2022-12-29T03:45:56.119Z,9.84
2022-12-29T03:51:01.249Z,9.87
2022-12-29T03:56:05.613Z,9.93
2022-12-29T04:01:10.549Z,9.94
2022-12-29T04:06:15.789Z,9.98
2022-12-29T04:11:21.791Z,9.90
2022-12-29T04:16:26.513Z,9.90
2022-12-29T04:21:31.734Z,9.89
2022-12-29T04:26:35.993Z,9.92
2022-12-29T04:31:43.548Z,9.88
2022-12-29T04:36:49.393Z,9.92
2022-12-29T04:41:54.717Z,9.89
2022-12-29T04:46:58.713Z,9.62
2022-12-29T04:52:05.129Z,9.58
2022-12-29T04:57:10.099Z,9.53
2022-12-29T05:02:15.753Z,9.47
2022-12-29T05:07:23.152Z,9.49
2022-12-29T05:12:31.240Z,9.52
2022-12-29T05:17:35.158Z,9.54
2022-12-29T05:22:40.506Z,9.48
2022-12-29T05:27:44.967Z,9.53
2022-12-29T05:32:50.597Z,9.54
2022-12-29T05:37:56.187Z,9.49
2022-12-29T05:42:59.981Z,9.51
2022-12-29T05:48:05.835Z,9.54
2022-12-29T05:53:11.178Z,9.49
2022-12-29T05:58:15.697Z,9.51
2022-12-29T06:03:19.676Z,9.51
2022-12-29T06:08:25.947Z,9.51
2022-12-29T06:13:30.176Z,9.47
2022-12-29T06:18:34.361Z,9.46
2022-12-29T06:23:39.397Z,9.47
2022-12-29T06:28:43.158Z,9.38
2022-12-29T06:33:50.086Z,9.45
2022-12-29T06:38:55.856Z,9.43
2022-12-29T06:44:00.055Z,9.46
2022-12-29T06:49:05.926Z,9.47
2022-12-29T06:54:11.047Z,9.45
2022-12-29T06:59:14.999Z,9.41
2022-12-29T07:04:18.878Z,9.35
2022-12-29T07:09:23.926Z,9.47
2022-12-29T07:14:27.669Z,9.43
2022-12-29T07:19:31.389Z,9.40
2022-12-29T07:24:36.412Z,9.37
2022-12-29T07:29:40.235Z,9.29
2022-12-29T07:34:46.260Z,9.28
2022-12-29T07:39:51.372Z,9.31
2022-12-29T07:44:55.077Z,9.35
2022-12-29T07:49:59.056Z,9.34
2022-12-29T07:55:04.160Z,9.30
2022-12-29T08:00:10.531Z,9.25
2022-12-29T08:05:16.342Z,9.22
2022-12-29T08:10:21.540Z,9.21
2022-12-29T08:15:30.485Z,9.20
2022-12-29T08:20:36.189Z,9.18
2022-12-29T08:25:41.245Z,9.18
2022-12-29T08:30:45.076Z,9.30
2022-12-29T08:35:48.848Z,9.44
2022-12-29T08:40:54.795Z,9.48
2022-12-29T08:45:59.731Z,9.53
2022-12-29T08:51:03.559Z,9.57
2022-12-29T08:56:10.861Z,9.57
2022-12-29T09:01:16.032Z,9.65
2022-12-29T09:06:20.092Z,9.62
2022-12-29T09:11:26.737Z,9.64
2022-12-29T09:16:30.586Z,9.68
2022-12-29T09:21:34.430Z,9.65
2022-12-29T09:26:46.685Z,9.53
2022-12-29T09:31:50.852Z,9.44
2022-12-29T09:36:54.682Z,9.19
2022-12-29T09:42:06.099Z,8.90
2022-12-29T09:47:13.423Z,8.67
2022-12-29T09:52:22.392Z,8.56
2022-12-29T09:57:30.795Z,8.45
2022-12-29T10:02:39.798Z,8.44
2022-12-29T10:07:52.210Z,8.35
2022-12-29T10:13:11.272Z,8.33
2022-12-29T10:18:51.175Z,8.29
2022-12-29T10:23:55.166Z,8.34
2022-12-29T10:29:05.804Z,8.37
2022-12-29T10:34:21.057Z,8.39
2022-12-29T10:39:32.608Z,8.43
2022-12-29T10:44:37.895Z,8.43
2022-12-29T10:49:44.731Z,8.52
2022-12-29T10:54:53.102Z,8.57
2022-12-29T10:59:59.225Z,8.72
2022-12-29T11:05:09.974Z,8.95
2022-12-29T11:10:22.365Z,8.92
2022-12-29T11:15:27.874Z,8.95
2022-12-29T11:20:35.980Z,9.02
2022-12-29T11:25:39.776Z,9.08
2022-12-29T11:30:45.356Z,9.18
2022-12-29T11:35:49.325Z,9.30
2022-12-29T11:40:53.730Z,9.17
2022-12-29T11:45:59.152Z,9.25
2022-12-29T11:51:02.916Z,9.37
2022-12-29T11:56:10.727Z,9.32
2022-12-29T12:01:20.597Z,9.33
2022-12-29T12:06:25.700Z,9.51
2022-12-29T12:11:37.959Z,9.48
2022-12-29T12:16:48.255Z,9.54
2022-12-29T12:21:57.644Z,9.56
2022-12-29T12:27:04.537Z,9.40
2022-12-29T12:32:16.737Z,9.17
2022-12-29T12:37:49.063Z,9.07
2022-12-29T12:43:03.958Z,9.09
2022-12-29T12:48:33.953Z,9.34
2022-12-29T12:53:53.625Z,9.38
2022-12-29T12:59:09.604Z,9.42
2022-12-29T13:04:46.224Z,9.45
2022-12-29T13:10:19.350Z,9.34
2022-12-29T13:15:40.767Z,8.90
2022-12-29T13:20:53.670Z,8.72
2022-12-29T13:26:07.054Z,8.62
2022-12-29T13:31:17.893Z,8.61
2022-12-29T13:36:28.483Z,8.59
2022-12-29T13:41:36.017Z,8.61
2022-12-29T13:46:42.900Z,8.59
2022-12-29T13:51:51.413Z,8.55
2022-12-29T13:57:02.909Z,8.55
2022-12-29T14:02:19.672Z,8.54
2022-12-29T14:07:24.887Z,8.56
2022-12-29T14:12:35.139Z,8.56
2022-12-29T14:17:40.401Z,8.57
2022-12-29T14:22:58.480Z,8.56
2022-12-29T14:28:17.982Z,8.36
2022-12-29T14:33:24.655Z,8.41
2022-12-29T14:38:33.913Z,8.49
2022-12-29T14:43:38.976Z,8.46
2022-12-29T14:48:45.476Z,8.47
2022-12-29T14:53:52.323Z,8.46
2022-12-29T14:58:58.880Z,8.40
2022-12-29T15:04:09.401Z,8.39
2022-12-29T15:09:26.722Z,8.29
2022-12-29T15:14:35.546Z,8.29
2022-12-29T15:19:39.628Z,8.26
2022-12-29T15:24:46.094Z,8.31
2022-12-29T15:29:50.199Z,8.24
2022-12-29T15:34:55.534Z,8.21
2022-12-29T15:40:00.624Z,8.21
2022-12-29T15:45:11.124Z,8.22
2022-12-29T15:50:24.009Z,8.15
2022-12-29T15:55:33.993Z,8.10
2022-12-29T16:00:38.675Z,8.03
2022-12-29T16:05:42.800Z,7.97
2022-12-29T16:10:47.941Z,7.94
2022-12-29T16:15:54.103Z,7.98
2022-12-29T16:20:59.322Z,7.91
2022-12-29T16:26:08.839Z,7.89
2022-12-29T16:31:21.480Z,7.84
2022-12-29T16:36:34.719Z,7.86
2022-12-29T16:41:39.833Z,7.80
2022-12-29T16:46:58.596Z,7.73
2022-12-29T16:52:03.289Z,7.68
2022-12-29T16:57:10.442Z,7.63
2022-12-29T17:02:16.742Z,7.66
2022-12-29T17:07:22.597Z,7.69
2022-12-29T17:12:31.759Z,7.61
2022-12-29T17:17:38.324Z,7.57
2022-12-29T17:22:42.108Z,7.48
2022-12-29T17:27:49.796Z,7.47
2022-12-29T17:32:55.401Z,7.40
2022-12-29T17:37:59.133Z,7.35
2022-12-29T17:43:04.226Z,7.24
2022-12-29T17:48:13.447Z,7.23
2022-12-29T17:53:21.307Z,7.17
2022-12-29T17:58:28.139Z,7.06
2022-12-29T18:03:34.910Z,7.03
2022-12-29T18:08:40.193Z,7.02
2022-12-29T18:13:46.962Z,6.96
2022-12-29T18:18:50.888Z,6.91
2022-12-29T18:23:54.836Z,6.90
2022-12-29T18:29:00.507Z,6.84
2022-12-29T18:34:13.784Z,6.85
2022-12-29T18:39:17.517Z,6.79
2022-12-29T18:44:24.525Z,6.82
2022-12-29T18:49:28.295Z,6.83
2022-12-29T18:54:33.892Z,6.89
2022-12-29T18:59:39.061Z,6.93
2022-12-29T19:04:42.765Z,6.94
2022-12-29T19:09:46.470Z,6.91
2022-12-29T19:14:51.568Z,6.89
2022-12-29T19:19:55.345Z,6.84
2022-12-29T19:25:00.293Z,6.81
2022-12-29T19:30:06.572Z,6.80
2022-12-29T19:35:12.562Z,6.75
2022-12-29T19:40:19.777Z,6.75
2022-12-29T19:45:24.919Z,6.68
2022-12-29T19:50:28.697Z,6.69
2022-12-29T19:55:32.438Z,6.65
2022-12-29T20:00:39.946Z,6.63
2022-12-29T20:05:49.392Z,6.59
2022-12-29T20:10:58.705Z,6.56
2022-12-29T20:16:05.788Z,6.58
2022-12-29T20:21:13.254Z,6.51
2022-12-29T20:26:19.491Z,6.47
2022-12-29T20:31:27.692Z,6.46
2022-12-29T20:36:33.363Z,6.40
2022-12-29T20:41:37.314Z,6.40
2022-12-29T20:46:44.109Z,6.44
2022-12-29T20:52:05.853Z,6.43
2022-12-29T20:57:10.286Z,6.39
2022-12-29T21:02:21.388Z,6.40
2022-12-29T21:07:25.345Z,6.42
2022-12-29T21:12:29.202Z,6.41
2022-12-29T21:17:34.442Z,6.39
2022-12-29T21:22:38.216Z,6.38
2022-12-29T21:27:44.620Z,6.36
2022-12-29T21:32:50.249Z,6.30
2022-12-29T21:37:54.141Z,6.30
2022-12-29T21:42:58.040Z,6.26
2022-12-29T21:48:23.941Z,6.25
2022-12-29T21:53:37.884Z,6.24
2022-12-29T21:59:01.426Z,6.16
2022-12-29T22:04:24.268Z,6.16
2022-12-29T22:09:45.693Z,6.10
2022-12-29T22:14:49.424Z,6.14
2022-12-29T22:19:54.550Z,6.10
2022-12-29T22:24:58.313Z,6.11
2022-12-29T22:30:02.360Z,6.07
2022-12-29T22:35:08.948Z,6.06
2022-12-29T22:40:13.721Z,6.03
2022-12-29T22:45:17.864Z,5.99
2022-12-29T22:50:22.915Z,5.96
2022-12-29T22:55:26.802Z,5.97
2022-12-29T23:00:30.541Z,5.98
2022-12-29T23:05:35.687Z,5.92
2022-12-29T23:10:39.365Z,5.95
2022-12-29T23:15:43.122Z,5.93
2022-12-29T23:20:49.496Z,5.94
2022-12-29T23:25:53.252Z,5.91
2022-12-29T23:30:57.008Z,5.88
2022-12-29T23:36:02.147Z,5.85
2022-12-29T23:41:06.220Z,5.85
2022-12-29T23:46:11.283Z,5.82
2022-12-29T23:51:16.888Z,5.79
2022-12-29T23:56:22.558Z,5.76
